Terminal Aerodrome Forecast
Issued by NWS Sioux Falls, SD

Home | Current Version | Previous Version | Graphics & Text | Print | Product List | Glossary Off
Versions: 1 2 3 4 5 6 7 8 9 10 11 12

000
FTUS43 KFSD 172320
TAFSUX
TAF
KSUX 172320Z 1800/1824 15005KT P6SM SKC
     FM181300 17008KT P6SM SCT250
     FM181600 21007KT P6SM SCT250
     FM181800 28010KT P6SM FEW250
     FM182000 32011KT P6SM SKC=

USA.gov is the U.S. government's official web portal to all federal, state and local government web resources and services.